Time;durP1;ratioP1;P1;durP2;ratioP2;P2;SDS_P1;SDS_P2;PMS_P1;PMS_P2;Temp;Humidity;BMP_temperature;BMP_pressure;BME280_temperature;BME280_humidity;BME280_pressure;Samples;Min_cycle;Max_cycle;Signal;HPM_P1;HPM_P2
2023/04/27 00:01:34;;;;;;;6.90;4.78;;;2.00;99.90;;;;;;5092761;28;20080;-34
2023/04/27 00:04:00;;;;;;;7.97;5.47;;;1.90;99.90;;;;;;5092614;28;20043;-33
2023/04/27 00:06:26;;;;;;;7.38;5.43;;;1.90;99.90;;;;;;5096066;28;20047;-33
2023/04/27 00:08:52;;;;;;;6.93;4.80;;;1.90;99.90;;;;;;5090828;28;20404;-33
2023/04/27 00:11:18;;;;;;;7.60;5.00;;;1.90;99.90;;;;;;5092653;28;20043;-33
2023/04/27 00:13:43;;;;;;;11.13;5.50;;;1.80;99.90;;;;;;5092897;28;20507;-33
2023/04/27 00:16:09;;;;;;;7.93;5.38;;;1.80;99.90;;;;;;5088253;28;20063;-34
2023/04/27 00:18:35;;;;;;;11.45;5.70;;;1.80;99.90;;;;;;5087995;28;20043;-34
2023/04/27 00:21:01;;;;;;;6.75;5.22;;;1.70;99.90;;;;;;5092533;28;20060;-33
2023/04/27 00:23:27;;;;;;;10.57;5.72;;;1.70;99.90;;;;;;5092553;28;20464;-33
2023/04/27 00:25:53;;;;;;;7.78;5.28;;;1.70;99.90;;;;;;5093548;28;20032;-33
2023/04/27 00:28:18;;;;;;;5.57;4.90;;;1.70;99.90;;;;;;5092620;28;20514;-33
2023/04/27 00:30:45;;;;;;;6.68;4.60;;;1.60;99.90;;;;;;5085098;28;20206;-34
2023/04/27 00:33:11;;;;;;;6.35;4.88;;;1.60;99.90;;;;;;5086931;28;20040;-33
2023/04/27 00:35:36;;;;;;;8.43;5.13;;;1.50;99.90;;;;;;5092106;28;20501;-33
2023/04/27 00:38:02;;;;;;;6.82;4.78;;;1.50;99.90;;;;;;5091095;28;20043;-33
2023/04/27 00:40:28;;;;;;;7.05;4.93;;;1.50;99.90;;;;;;5088628;28;20051;-33
2023/04/27 00:42:54;;;;;;;6.32;4.88;;;1.40;99.90;;;;;;5092019;28;20028;-33
2023/04/27 00:45:20;;;;;;;8.20;5.18;;;1.40;99.90;;;;;;5091996;28;20100;-33
2023/04/27 00:47:45;;;;;;;7.10;5.35;;;1.40;99.90;;;;;;5090703;28;20545;-33
2023/04/27 00:50:11;;;;;;;8.25;5.07;;;1.40;99.90;;;;;;5085443;28;20128;-33
2023/04/27 00:52:37;;;;;;;7.32;5.53;;;1.40;99.90;;;;;;5091597;28;20123;-33
2023/04/27 00:55:04;;;;;;;5.68;5.07;;;1.30;99.90;;;;;;5091429;28;20040;-33
2023/04/27 00:57:32;;;;;;;5.78;4.50;;;1.30;99.90;;;;;;5091230;28;20432;-33
2023/04/27 00:59:59;;;;;;;8.70;5.10;;;1.30;99.90;;;;;;5091561;28;20032;-33
2023/04/27 01:02:25;;;;;;;5.82;4.53;;;1.30;99.90;;;;;;5091496;28;20511;-33
2023/04/27 01:04:52;;;;;;;8.57;4.68;;;1.30;99.90;;;;;;5089145;28;20036;-33
2023/04/27 01:07:17;;;;;;;7.60;5.53;;;1.30;99.90;;;;;;5088662;28;20512;-33
2023/04/27 01:09:43;;;;;;;6.07;5.10;;;1.30;99.90;;;;;;5091418;28;20044;-33
2023/04/27 01:12:09;;;;;;;9.27;5.07;;;1.20;99.90;;;;;;5091396;28;20047;-33
2023/04/27 01:14:38;;;;;;;7.95;5.00;;;1.30;99.90;;;;;;5091350;28;20374;-33
2023/04/27 01:17:03;;;;;;;9.63;5.07;;;1.20;99.90;;;;;;5091432;28;20039;-33
2023/04/27 01:19:29;;;;;;;7.43;5.03;;;1.20;99.90;;;;;;5083210;28;20040;-33
2023/04/27 01:21:55;;;;;;;8.23;5.03;;;1.20;99.90;;;;;;5087749;28;20039;-33
2023/04/27 01:24:21;;;;;;;7.93;5.07;;;1.10;99.90;;;;;;5086224;28;20079;-33
2023/04/27 01:26:46;;;;;;;7.80;5.15;;;1.10;99.90;;;;;;5091418;28;20040;-33
2023/04/27 01:29:12;;;;;;;8.68;5.13;;;1.10;99.90;;;;;;5090863;28;20439;-33
2023/04/27 01:31:38;;;;;;;8.13;4.70;;;1.10;99.90;;;;;;5091269;28;20047;-33
2023/04/27 01:34:03;;;;;;;7.07;5.18;;;1.00;99.90;;;;;;5057388;28;20126;-33
2023/04/27 01:36:31;;;;;;;7.82;5.18;;;1.00;99.90;;;;;;5082898;28;20044;-33
2023/04/27 01:38:56;;;;;;;6.63;4.72;;;1.00;99.90;;;;;;5090380;28;20040;-33
2023/04/27 01:41:22;;;;;;;8.27;5.40;;;1.00;99.90;;;;;;5084766;28;20387;-33
2023/04/27 01:43:48;;;;;;;8.75;5.50;;;0.90;99.90;;;;;;5077050;28;20075;-33
2023/04/27 01:46:14;;;;;;;7.85;5.43;;;0.90;99.90;;;;;;5084357;28;20036;-33
2023/04/27 01:48:40;;;;;;;9.77;5.68;;;0.90;99.90;;;;;;5084298;28;20037;-34
2023/04/27 01:51:06;;;;;;;9.00;5.70;;;0.90;99.90;;;;;;5061873;28;20139;-33
2023/04/27 01:53:32;;;;;;;9.10;6.05;;;0.80;99.90;;;;;;5080024;28;20115;-33
2023/04/27 01:55:58;;;;;;;6.35;5.15;;;0.90;99.90;;;;;;5087459;28;20032;-33
2023/04/27 01:58:24;;;;;;;8.48;5.57;;;0.80;99.90;;;;;;5088386;28;20090;-33
2023/04/27 02:00:51;;;;;;;7.47;5.25;;;0.80;99.90;;;;;;5090545;28;20028;-33
2023/04/27 02:03:17;;;;;;;9.82;5.35;;;0.80;99.90;;;;;;5090136;28;20048;-33
2023/04/27 02:05:43;;;;;;;7.43;5.00;;;0.80;99.90;;;;;;5088037;28;20032;-33
2023/04/27 02:08:08;;;;;;;7.13;5.35;;;0.80;99.90;;;;;;5090938;28;20040;-33
2023/04/27 02:10:35;;;;;;;9.80;5.97;;;0.70;99.90;;;;;;5082639;28;20040;-33
2023/04/27 02:13:00;;;;;;;8.07;5.88;;;0.70;99.90;;;;;;5073375;28;20123;-33
2023/04/27 02:15:26;;;;;;;12.07;5.05;;;0.70;99.90;;;;;;5090287;28;20483;-34
2023/04/27 02:17:52;;;;;;;8.02;5.70;;;0.70;99.90;;;;;;5083922;28;20094;-33
2023/04/27 02:20:18;;;;;;;6.80;5.18;;;0.70;99.90;;;;;;5091231;28;20039;-33
2023/04/27 02:22:43;;;;;;;6.90;4.65;;;0.70;99.90;;;;;;5072343;28;20036;-33
2023/04/27 02:25:10;;;;;;;7.75;4.82;;;0.60;99.90;;;;;;5090715;28;20032;-33
2023/04/27 02:27:40;;;;;;;7.30;5.25;;;0.60;99.90;;;;;;5081231;28;20040;-33
2023/04/27 02:30:07;;;;;;;8.65;5.22;;;0.60;99.90;;;;;;5085051;28;20037;-33
2023/04/27 02:32:33;;;;;;;14.30;5.88;;;0.60;99.90;;;;;;5081625;28;20040;-33
2023/04/27 02:34:59;;;;;;;9.30;5.85;;;0.60;99.90;;;;;;5089493;28;20114;-33
2023/04/27 02:37:25;;;;;;;11.82;6.00;;;0.60;99.90;;;;;;5089878;28;20032;-33
2023/04/27 02:39:51;;;;;;;6.75;5.18;;;0.60;99.90;;;;;;5075420;28;20482;-33
2023/04/27 02:42:17;;;;;;;8.40;5.85;;;0.60;99.90;;;;;;5083113;28;20032;-33
2023/04/27 02:44:43;;;;;;;8.77;5.57;;;0.60;99.90;;;;;;5088467;28;20035;-33
2023/04/27 02:47:09;;;;;;;11.80;6.63;;;0.60;99.90;;;;;;5089804;28;20115;-33
2023/04/27 02:49:34;;;;;;;12.52;6.28;;;0.50;99.90;;;;;;5082789;28;20482;-33
2023/04/27 02:52:00;;;;;;;8.98;6.13;;;0.50;99.90;;;;;;5089896;28;20055;-33
2023/04/27 02:54:26;;;;;;;8.10;5.32;;;0.50;99.90;;;;;;5089870;28;20097;-33
2023/04/27 02:56:52;;;;;;;9.95;5.82;;;0.50;99.90;;;;;;5089729;28;20063;-33
2023/04/27 02:59:17;;;;;;;7.85;5.82;;;0.80;99.90;;;;;;5083618;28;20072;-33
2023/04/27 03:01:43;;;;;;;9.23;5.80;;;0.50;99.90;;;;;;5086992;28;20094;-33
2023/04/27 03:04:09;;;;;;;8.75;6.30;;;0.40;99.90;;;;;;5088466;28;20568;-33
2023/04/27 03:06:35;;;;;;;8.38;6.22;;;0.50;99.90;;;;;;5093848;28;20036;-33
2023/04/27 03:09:02;;;;;;;8.48;6.03;;;0.40;99.90;;;;;;5094009;28;20031;-33
2023/04/27 03:11:28;;;;;;;11.88;6.90;;;0.50;99.90;;;;;;5093980;28;20123;-33
2023/04/27 03:13:54;;;;;;;10.85;6.78;;;0.40;99.90;;;;;;5086372;28;20118;-33
2023/04/27 03:16:19;;;;;;;10.85;6.30;;;0.50;99.90;;;;;;5082595;28;20040;-33
2023/04/27 03:18:45;;;;;;;10.77;6.78;;;0.40;99.90;;;;;;5091062;28;20462;-33
2023/04/27 03:21:11;;;;;;;8.70;6.13;;;0.40;99.90;;;;;;5093785;28;20040;-33
2023/04/27 03:23:37;;;;;;;10.80;7.22;;;0.40;99.90;;;;;;5093252;28;20127;-33
2023/04/27 03:26:11;;;;;;;11.90;7.68;;;0.40;99.90;;;;;;5088454;28;20064;-33
2023/04/27 03:28:37;;;;;;;9.55;6.70;;;0.40;99.90;;;;;;5093625;28;20047;-33
2023/04/27 03:31:11;;;;;;;12.48;7.82;;;0.40;99.90;;;;;;5086074;28;20162;-33
2023/04/27 03:33:38;;;;;;;14.30;6.70;;;0.30;99.90;;;;;;5088333;28;20093;-33
2023/04/27 03:36:05;;;;;;;9.55;6.30;;;0.20;99.90;;;;;;5089068;28;20086;-33
2023/04/27 03:38:32;;;;;;;9.65;6.30;;;0.20;99.90;;;;;;5110089;28;20415;-33
2023/04/27 03:40:58;;;;;;;10.75;5.68;;;0.20;99.90;;;;;;5087601;28;20036;-33
2023/04/27 03:43:25;;;;;;;9.65;5.20;;;0.20;99.90;;;;;;5110125;27;20051;-33
2023/04/27 03:45:51;;;;;;;8.02;5.65;;;0.10;99.90;;;;;;5091756;28;20040;-33
2023/04/27 03:48:20;;;;;;;9.63;6.18;;;0.10;99.90;;;;;;5092861;28;20040;-34
2023/04/27 03:50:49;;;;;;;10.77;6.80;;;0.10;99.90;;;;;;5093294;28;20374;-34
2023/04/27 03:53:15;;;;;;;11.45;5.93;;;0.10;99.90;;;;;;5081485;28;20046;-34
2023/04/27 03:55:42;;;;;;;8.38;5.72;;;0.10;99.90;;;;;;5075981;28;20435;-34
2023/04/27 03:58:11;;;;;;;8.40;6.38;;;0.00;99.90;;;;;;5093138;28;20040;-34
2023/04/27 04:00:38;;;;;;;9.00;6.28;;;0.00;99.90;;;;;;5092833;28;20435;-34
2023/04/27 04:03:05;;;;;;;10.10;6.40;;;0.00;99.90;;;;;;5093058;28;20076;-34
2023/04/27 04:05:31;;;;;;;9.38;6.47;;;0.00;99.90;;;;;;5087496;28;20049;-34
2023/04/27 04:07:57;;;;;;;13.23;6.50;;;0.00;99.90;;;;;;5088441;28;20501;-34
2023/04/27 04:10:24;;;;;;;9.00;6.30;;;-0.10;99.90;;;;;;5092852;28;20040;-34
2023/04/27 04:12:50;;;;;;;11.50;6.38;;;-0.10;99.90;;;;;;5087724;28;20120;-34
2023/04/27 04:15:16;;;;;;;10.15;6.22;;;-0.10;99.90;;;;;;5086882;28;20512;-34
2023/04/27 04:17:42;;;;;;;8.40;6.78;;;-0.10;99.90;;;;;;5084104;28;20068;-34
2023/04/27 04:20:09;;;;;;;9.88;7.15;;;-0.10;99.90;;;;;;5092929;28;20439;-34
2023/04/27 04:22:36;;;;;;;10.38;6.90;;;-0.10;99.90;;;;;;5092012;28;20038;-34
2023/04/27 04:25:02;;;;;;;13.98;7.90;;;-0.10;99.90;;;;;;5088843;28;20033;-34
2023/04/27 04:27:28;;;;;;;13.73;8.20;;;-0.10;99.90;;;;;;5079699;28;20393;-34
2023/04/27 04:29:54;;;;;;;16.08;8.43;;;0.00;99.90;;;;;;5092503;28;20051;-34
2023/04/27 04:32:21;;;;;;;14.32;7.70;;;0.00;99.90;;;;;;5092195;28;20553;-34
2023/04/27 04:34:50;;;;;;;11.82;7.53;;;0.00;99.90;;;;;;5094125;28;20032;-34
2023/04/27 04:37:19;;;;;;;13.27;7.65;;;0.00;99.90;;;;;;5083211;28;20093;-34
2023/04/27 04:39:45;;;;;;;13.55;9.05;;;0.10;99.90;;;;;;5090519;28;20173;-34
2023/04/27 04:42:11;;;;;;;11.32;7.50;;;0.10;99.90;;;;;;5090969;28;20123;-34
2023/04/27 04:44:37;;;;;;;11.35;8.18;;;0.10;99.90;;;;;;5090581;28;20430;-34
2023/04/27 04:47:03;;;;;;;10.55;7.13;;;0.10;99.90;;;;;;5085668;28;20028;-34
2023/04/27 04:49:29;;;;;;;10.38;6.65;;;0.10;99.90;;;;;;5088015;28;20032;-34
2023/04/27 04:51:55;;;;;;;11.80;7.35;;;0.10;99.90;;;;;;5091775;28;20035;-34
2023/04/27 04:54:21;;;;;;;12.32;7.40;;;0.20;99.90;;;;;;5091771;28;20032;-34
2023/04/27 04:56:46;;;;;;;9.45;7.07;;;0.20;99.90;;;;;;5089584;28;20071;-34
2023/04/27 04:59:12;;;;;;;12.20;7.55;;;0.20;99.90;;;;;;5089877;28;20040;-34
2023/04/27 05:01:38;;;;;;;11.60;7.93;;;0.30;99.90;;;;;;5082154;28;20048;-34
2023/04/27 05:04:04;;;;;;;11.05;7.38;;;0.30;99.90;;;;;;5089564;28;20036;-34
2023/04/27 05:06:31;;;;;;;13.32;7.90;;;0.30;99.90;;;;;;5084337;28;20032;-34
2023/04/27 05:08:57;;;;;;;11.73;7.70;;;0.30;99.90;;;;;;5088901;28;20036;-34
2023/04/27 05:11:22;;;;;;;12.45;8.13;;;0.40;99.90;;;;;;5086764;28;20042;-34
2023/04/27 05:13:48;;;;;;;13.13;7.82;;;0.50;99.90;;;;;;5089655;28;20094;-34
2023/04/27 05:16:14;;;;;;;11.82;8.13;;;0.50;99.90;;;;;;5091080;28;20044;-34
2023/04/27 05:18:40;;;;;;;11.95;7.70;;;0.50;99.90;;;;;;5083766;28;20041;-34
2023/04/27 05:21:13;;;;;;;13.13;7.90;;;0.60;99.90;;;;;;5090551;28;20428;-34
2023/04/27 05:23:39;;;;;;;13.00;7.43;;;0.60;99.90;;;;;;5083019;28;20036;-34
2023/04/27 05:26:16;;;;;;;12.95;7.82;;;0.60;99.90;;;;;;5090487;28;20040;-34
2023/04/27 05:28:42;;;;;;;12.60;8.55;;;0.60;99.90;;;;;;5087254;28;20427;-34
2023/04/27 05:31:07;;;;;;;12.95;8.20;;;0.70;99.90;;;;;;5089411;28;20040;-34
2023/04/27 05:33:33;;;;;;;11.52;7.80;;;0.80;99.90;;;;;;5067517;28;20040;-35
2023/04/27 05:35:59;;;;;;;12.65;9.15;;;0.80;99.90;;;;;;5083486;28;20063;-34
2023/04/27 05:38:25;;;;;;;11.63;8.75;;;0.80;99.90;;;;;;5085932;28;20047;-35
2023/04/27 05:40:58;;;;;;;11.52;8.93;;;0.90;99.90;;;;;;5090006;28;20036;-34
2023/04/27 05:43:24;;;;;;;18.38;10.85;;;1.00;99.90;;;;;;5090737;28;20520;-35
2023/04/27 05:45:51;;;;;;;16.80;10.63;;;1.10;99.90;;;;;;5091267;28;20024;-34
2023/04/27 05:48:17;;;;;;;16.35;10.13;;;1.20;99.90;;;;;;5088177;28;20200;-35
2023/04/27 05:50:42;;;;;;;14.55;10.13;;;1.30;99.90;;;;;;5084212;28;20126;-34
2023/04/27 05:53:08;;;;;;;14.00;10.32;;;1.40;99.90;;;;;;5087128;28;20119;-34
2023/04/27 05:55:34;;;;;;;16.98;9.80;;;1.60;99.90;;;;;;5090754;28;20071;-34
2023/04/27 05:58:00;;;;;;;17.20;10.65;;;1.70;99.90;;;;;;5089982;28;20043;-34
2023/04/27 06:00:27;;;;;;;17.98;11.45;;;1.90;99.90;;;;;;5089096;28;20401;-34
2023/04/27 06:02:53;;;;;;;16.55;11.20;;;2.00;99.90;;;;;;5089750;28;20036;-35
2023/04/27 06:05:20;;;;;;;16.35;10.45;;;2.20;99.90;;;;;;5067367;28;20043;-34
2023/04/27 06:07:46;;;;;;;17.27;10.38;;;2.30;99.90;;;;;;5084166;28;20086;-34
2023/04/27 06:10:13;;;;;;;19.20;12.20;;;2.40;99.90;;;;;;5092041;28;20039;-34
2023/04/27 06:12:39;;;;;;;17.20;11.07;;;2.50;99.90;;;;;;5091225;28;20047;-34
2023/04/27 06:15:08;;;;;;;17.95;11.10;;;2.70;99.90;;;;;;5090843;28;20040;-35
2023/04/27 06:17:35;;;;;;;13.65;10.82;;;2.80;99.90;;;;;;5087767;28;20098;-35
2023/04/27 06:20:03;;;;;;;19.38;11.75;;;2.90;99.90;;;;;;5090355;28;20040;-34
2023/04/27 06:22:29;;;;;;;16.70;11.63;;;3.00;99.90;;;;;;5089338;28;20035;-35
2023/04/27 06:24:55;;;;;;;14.43;11.73;;;3.20;99.90;;;;;;5087281;28;20520;-34
2023/04/27 06:27:21;;;;;;;14.95;9.80;;;3.30;99.90;;;;;;5072622;28;20044;-35
2023/04/27 06:29:46;;;;;;;13.02;9.25;;;3.40;99.90;;;;;;5089038;28;20032;-35
2023/04/27 06:32:12;;;;;;;14.52;8.38;;;3.60;99.90;;;;;;5067911;28;20040;-35
2023/04/27 06:34:38;;;;;;;16.13;8.40;;;3.70;99.90;;;;;;5096360;28;20548;-34
2023/04/27 06:37:03;;;;;;;13.63;7.25;;;3.80;99.90;;;;;;5089316;28;20482;-34
2023/04/27 06:39:30;;;;;;;11.98;6.85;;;3.90;99.90;;;;;;5085622;28;20032;-34
2023/04/27 06:41:57;;;;;;;8.70;7.32;;;4.10;99.90;;;;;;5080839;28;20122;-34
2023/04/27 06:44:23;;;;;;;16.33;8.95;;;4.10;99.90;;;;;;5082015;28;20501;-35
2023/04/27 06:46:48;;;;;;;9.45;6.95;;;4.30;99.90;;;;;;5087617;28;20032;-34
2023/04/27 06:49:14;;;;;;;11.10;7.13;;;4.40;99.90;;;;;;5067059;28;20037;-34
2023/04/27 06:51:40;;;;;;;13.13;8.05;;;4.50;99.90;;;;;;5074170;28;20119;-34
2023/04/27 06:54:06;;;;;;;9.38;6.70;;;4.60;99.90;;;;;;5074820;28;20036;-34
2023/04/27 06:56:32;;;;;;;10.90;5.88;;;4.70;99.90;;;;;;5074433;28;20067;-34
2023/04/27 06:58:57;;;;;;;7.85;6.07;;;4.80;99.90;;;;;;5082332;28;20067;-34
2023/04/27 07:01:23;;;;;;;9.75;6.00;;;5.00;99.90;;;;;;5078985;28;20055;-35
2023/04/27 07:03:49;;;;;;;9.13;6.45;;;5.10;99.90;;;;;;5073336;28;20036;-35
2023/04/27 07:06:15;;;;;;;8.55;5.70;;;5.20;99.90;;;;;;5073722;28;20064;-34
2023/04/27 07:08:41;;;;;;;9.55;6.00;;;5.40;99.90;;;;;;5086426;28;20060;-34
2023/04/27 07:11:07;;;;;;;7.95;5.13;;;5.50;99.90;;;;;;5088135;28;20139;-34
2023/04/27 07:13:33;;;;;;;9.05;5.75;;;5.70;99.90;;;;;;5076557;28;20113;-34
2023/04/27 07:16:00;;;;;;;9.75;5.75;;;5.80;99.90;;;;;;5076066;28;20051;-34
2023/04/27 07:18:29;;;;;;;6.78;4.82;;;6.00;99.90;;;;;;5076154;28;20037;-35
2023/04/27 07:20:56;;;;;;;6.60;5.65;;;6.20;99.90;;;;;;5080080;28;20032;-35
2023/04/27 07:23:23;;;;;;;9.30;6.03;;;6.30;99.90;;;;;;5077253;28;20060;-34
2023/04/27 07:25:50;;;;;;;7.57;5.30;;;6.50;99.90;;;;;;5079474;28;20067;-35
2023/04/27 07:28:17;;;;;;;6.85;5.35;;;6.70;99.90;;;;;;5082713;28;20040;-34
2023/04/27 07:30:43;;;;;;;7.70;5.70;;;6.90;99.90;;;;;;5049866;28;20047;-35
2023/04/27 07:33:09;;;;;;;8.98;4.72;;;7.10;99.90;;;;;;5083119;28;20464;-34
2023/04/27 07:35:36;;;;;;;6.82;4.50;;;7.30;99.90;;;;;;5088194;28;20116;-35
2023/04/27 07:38:02;;;;;;;6.75;4.15;;;7.50;99.90;;;;;;5083301;28;20412;-34
2023/04/27 07:40:29;;;;;;;6.38;4.68;;;7.80;99.90;;;;;;5077394;28;20078;-35
2023/04/27 07:42:57;;;;;;;6.47;5.22;;;7.90;99.90;;;;;;5098321;28;20040;-34
2023/04/27 07:45:30;;;;;;;6.18;4.63;;;8.10;99.90;;;;;;5087329;28;20653;-35
2023/04/27 07:47:57;;;;;;;6.35;4.75;;;8.30;99.90;;;;;;5079974;28;20129;-35
2023/04/27 07:50:24;;;;;;;6.85;5.05;;;8.60;99.90;;;;;;5091950;28;20050;-35
2023/04/27 07:52:50;;;;;;;7.28;4.82;;;8.70;99.90;;;;;;5092988;28;20036;-34
2023/04/27 07:55:15;;;;;;;9.23;5.25;;;8.90;99.90;;;;;;5093136;28;20039;-34
2023/04/27 07:57:41;;;;;;;9.88;5.22;;;9.10;99.90;;;;;;5086556;28;20035;-35
2023/04/27 08:00:09;;;;;;;9.32;5.35;;;9.20;99.90;;;;;;5090757;28;20123;-34
2023/04/27 08:02:35;;;;;;;7.72;4.88;;;9.40;99.90;;;;;;5089499;28;20521;-35
2023/04/27 08:05:01;;;;;;;6.63;5.40;;;9.60;99.90;;;;;;5092227;28;20074;-34
2023/04/27 08:07:27;;;;;;;5.57;4.35;;;9.60;99.90;;;;;;5091313;28;20048;-35
2023/04/27 08:09:53;;;;;;;5.95;4.70;;;9.70;99.90;;;;;;5094984;28;20035;-34
2023/04/27 08:12:19;;;;;;;5.00;3.90;;;9.80;99.90;;;;;;5094486;28;20063;-35
2023/04/27 08:14:45;;;;;;;5.57;3.95;;;10.00;99.90;;;;;;5082302;28;20072;-34
2023/04/27 08:17:11;;;;;;;4.50;3.78;;;10.00;99.90;;;;;;5092632;28;20564;-35
2023/04/27 08:19:37;;;;;;;5.57;4.05;;;10.10;99.90;;;;;;5090182;28;20127;-35
2023/04/27 08:22:03;;;;;;;7.70;4.10;;;10.30;99.90;;;;;;5091800;28;20060;-35
2023/04/27 08:24:28;;;;;;;5.03;3.63;;;10.40;99.90;;;;;;5097838;28;20028;-34
2023/04/27 08:26:57;;;;;;;3.45;3.25;;;10.40;99.90;;;;;;5087023;28;20474;-34
2023/04/27 08:29:23;;;;;;;5.75;4.40;;;10.60;99.90;;;;;;5087822;28;20048;-34
2023/04/27 08:31:49;;;;;;;3.95;3.60;;;10.70;99.90;;;;;;5092288;28;20032;-34
2023/04/27 08:34:15;;;;;;;4.47;3.10;;;10.80;99.90;;;;;;5091508;28;20044;-34
2023/04/27 08:36:41;;;;;;;5.80;3.83;;;10.90;99.90;;;;;;5084163;28;20512;-35
2023/04/27 08:39:07;;;;;;;5.30;3.70;;;10.80;99.90;;;;;;5091549;28;20040;-35
2023/04/27 08:41:33;;;;;;;5.47;3.90;;;10.90;99.90;;;;;;5089660;28;20040;-34
2023/04/27 08:43:59;;;;;;;5.95;3.88;;;10.90;99.90;;;;;;5091657;28;20035;-35
2023/04/27 08:46:28;;;;;;;5.97;3.85;;;11.00;99.90;;;;;;5091373;28;20115;-34
2023/04/27 08:48:54;;;;;;;4.80;4.28;;;11.10;99.90;;;;;;5090044;28;20039;-34
2023/04/27 08:51:21;;;;;;;4.20;3.67;;;11.30;99.90;;;;;;5083610;28;20036;-35
2023/04/27 08:53:51;;;;;;;4.28;3.75;;;11.60;99.90;;;;;;5091111;28;20040;-34
2023/04/27 08:56:22;;;;;;;4.10;3.30;;;11.70;93.20;;;;;;5091764;28;20137;-34
2023/04/27 08:58:48;;;;;;;4.32;3.53;;;11.90;99.90;;;;;;5090915;28;20107;-35
2023/04/27 09:01:14;;;;;;;5.80;3.70;;;11.90;99.90;;;;;;5087285;28;20040;-35
2023/04/27 09:03:41;;;;;;;4.15;3.63;;;12.20;99.90;;;;;;5085040;28;20413;-36
2023/04/27 09:06:07;;;;;;;6.40;3.90;;;12.50;99.90;;;;;;5088261;28;20042;-35
2023/04/27 09:08:46;;;;;;;3.78;3.42;;;12.70;99.90;;;;;;5081924;28;20032;-35
2023/04/27 09:11:27;;;;;;;3.80;3.50;;;12.90;86.60;;;;;;5097113;28;20389;-34
2023/04/27 09:13:52;;;;;;;3.92;3.33;;;13.00;88.30;;;;;;5102219;27;20040;-35
2023/04/27 09:16:27;;;;;;;5.15;3.30;;;13.20;99.90;;;;;;5088620;28;20085;-35
2023/04/27 09:18:53;;;;;;;4.28;3.45;;;13.10;99.90;;;;;;5102172;28;20032;-35
2023/04/27 09:21:27;;;;;;;4.15;3.08;;;13.20;99.90;;;;;;5096720;28;20498;-35
2023/04/27 09:23:53;;;;;;;;;;;13.20;83.70;;;;;;5085341;28;20465;-35
2023/04/27 09:26:26;;;;;;;4.15;2.78;;;13.50;60.20;;;;;;5091039;28;19920;-35
2023/04/27 09:28:56;;;;;;;5.03;3.33;;;13.70;83.10;;;;;;5083244;28;20047;-35
2023/04/27 09:31:30;;;;;;;3.40;3.10;;;13.80;94.50;;;;;;5109931;27;20405;-35
2023/04/27 09:33:56;;;;;;;5.53;3.60;;;14.30;76.90;;;;;;5087401;28;20420;-35
2023/04/27 09:36:23;;;;;;;6.72;3.63;;;14.40;82.20;;;;;;5090015;28;20035;-35
2023/04/27 09:38:51;;;;;;;3.55;3.22;;;14.50;73.10;;;;;;5097416;28;20082;-35
2023/04/27 09:41:20;;;;;;;5.20;3.35;;;14.50;64.30;;;;;;5088290;28;20042;-35
2023/04/27 09:43:46;;;;;;;4.38;3.00;;;14.60;61.40;;;;;;5089512;28;20040;-36
2023/04/27 09:46:15;;;;;;;3.10;2.90;;;14.60;61.90;;;;;;5087630;28;20081;-33
2023/04/27 09:48:41;;;;;;;4.57;3.42;;;14.70;62.30;;;;;;5094868;28;20071;-35
2023/04/27 09:51:07;;;;;;;3.88;3.30;;;14.70;60.30;;;;;;5079558;28;20212;-35
2023/04/27 09:53:39;;;;;;;4.18;3.67;;;15.10;60.80;;;;;;5091286;28;20090;-36
2023/04/27 09:56:35;;;;;;;4.40;3.03;;;15.40;59.90;;;;;;5103289;28;20036;-35
2023/04/27 09:59:13;;;;;;;4.47;3.63;;;15.80;56.90;;;;;;5086732;28;20043;-36
2023/04/27 10:01:51;;;;;;;7.05;3.63;;;16.00;58.70;;;;;;5091046;28;20032;-36
2023/04/27 10:04:38;;;;;;;5.13;3.03;;;16.20;57.60;;;;;;5090278;28;20075;-36
2023/04/27 10:07:06;;;;;;;4.43;3.50;;;16.20;55.50;;;;;;5091899;28;20507;-35
2023/04/27 10:09:41;;;;;;;7.03;3.50;;;16.00;54.30;;;;;;5089915;28;20032;-36
2023/04/27 10:12:15;;;;;;;6.25;3.70;;;16.20;52.00;;;;;;5071160;28;20434;-35
2023/04/27 10:14:47;;;;;;;;;;;16.30;54.10;;;;;;5096335;28;20081;-35
2023/04/27 10:17:13;;;;;;;3.78;3.22;;;16.20;51.10;;;;;;5085643;28;19916;-36
2023/04/27 10:19:39;;;;;;;4.70;3.60;;;16.50;56.50;;;;;;5081676;28;20046;-36
2023/04/27 10:22:07;;;;;;;4.13;3.72;;;16.40;54.10;;;;;;5087585;28;20041;-35
2023/04/27 10:24:40;;;;;;;3.90;3.42;;;16.60;53.80;;;;;;5089932;28;20036;-36
2023/04/27 10:27:08;;;;;;;5.45;3.80;;;17.00;53.40;;;;;;5082428;28;20039;-35
2023/04/27 10:29:36;;;;;;;3.85;3.45;;;17.00;53.00;;;;;;5087231;28;20393;-36
2023/04/27 10:32:06;;;;;;;4.05;3.72;;;17.10;53.60;;;;;;5081581;28;20032;-36
2023/04/27 10:34:37;;;;;;;5.35;3.70;;;17.10;50.50;;;;;;5088671;28;20063;-36
2023/04/27 10:37:10;;;;;;;4.28;3.90;;;17.20;51.50;;;;;;5086898;28;20039;-36
2023/04/27 10:39:43;;;;;;;5.30;4.53;;;17.50;50.20;;;;;;5083666;28;20497;-36
2023/04/27 10:42:10;;;;;;;4.78;4.38;;;17.20;51.30;;;;;;5085065;28;20044;-36
2023/04/27 10:44:37;;;;;;;5.15;3.70;;;17.20;51.70;;;;;;5078173;28;20035;-36
2023/04/27 10:47:18;;;;;;;4.20;3.80;;;17.10;51.20;;;;;;5088598;28;20036;-36
2023/04/27 10:49:44;;;;;;;5.82;3.63;;;17.00;48.50;;;;;;5084900;28;20371;-36
2023/04/27 10:52:11;;;;;;;4.18;3.72;;;17.30;52.20;;;;;;5089663;28;20570;-35
2023/04/27 10:54:38;;;;;;;5.60;3.88;;;17.60;52.00;;;;;;5086019;28;20127;-36
2023/04/27 10:57:08;;;;;;;5.68;4.40;;;17.40;50.40;;;;;;5101421;28;20098;-36
2023/04/27 10:59:35;;;;;;;5.18;4.00;;;17.30;49.80;;;;;;5086061;28;20028;-37
2023/04/27 11:02:01;;;;;;;4.07;3.70;;;17.50;50.60;;;;;;5073240;28;20037;-36
2023/04/27 11:04:39;;;;;;;4.70;3.75;;;17.80;50.00;;;;;;5084308;28;20440;-36
2023/04/27 11:07:07;;;;;;;5.05;4.10;;;18.00;47.60;;;;;;5083387;28;20119;-36
2023/04/27 11:09:35;;;;;;;6.57;4.30;;;18.00;48.20;;;;;;5086554;28;20032;-35
2023/04/27 11:12:01;;;;;;;5.32;4.10;;;18.50;49.30;;;;;;5083424;28;20036;-34
2023/04/27 11:14:28;;;;;;;5.70;4.45;;;18.40;47.10;;;;;;5089533;28;20094;-34
2023/04/27 11:16:54;;;;;;;4.40;4.00;;;18.60;47.80;;;;;;5089828;28;20675;-34
2023/04/27 11:19:21;;;;;;;5.32;3.72;;;18.70;46.20;;;;;;5092176;28;20067;-34
2023/04/27 11:21:47;;;;;;;4.97;4.13;;;19.00;46.20;;;;;;5080361;28;20094;-34
2023/04/27 11:24:13;;;;;;;4.50;4.07;;;19.20;45.30;;;;;;5097441;28;20036;-34
2023/04/27 11:26:39;;;;;;;5.50;4.10;;;19.30;45.30;;;;;;5090684;28;20024;-33
2023/04/27 11:29:12;;;;;;;4.65;4.15;;;19.60;46.40;;;;;;5091853;28;20032;-34
2023/04/27 11:31:48;;;;;;;4.43;3.97;;;19.80;45.90;;;;;;5093725;28;20043;-33
2023/04/27 11:34:22;;;;;;;5.60;4.03;;;19.60;43.30;;;;;;5090822;28;20068;-35
2023/04/27 11:36:59;;;;;;;5.38;4.35;;;19.80;44.30;;;;;;5073395;28;20051;-34
2023/04/27 11:39:32;;;;;;;4.40;4.00;;;19.90;44.10;;;;;;5093420;28;20092;-35
2023/04/27 11:42:23;;;;;;;5.18;4.50;;;19.40;44.10;;;;;;5088587;28;20040;-34
2023/04/27 11:44:53;;;;;;;5.00;4.50;;;19.10;43.30;;;;;;5087156;28;20393;-34
2023/04/27 11:47:20;;;;;;;5.10;4.60;;;18.70;45.10;;;;;;5091129;28;20032;-34
2023/04/27 11:49:51;;;;;;;4.53;4.10;;;18.50;44.20;;;;;;5085715;28;20032;-35
2023/04/27 11:52:17;;;;;;;5.03;4.05;;;18.40;44.30;;;;;;5083983;28;20032;-34
2023/04/27 11:54:55;;;;;;;4.85;4.32;;;18.40;44.40;;;;;;5084293;28;20170;-34
2023/04/27 11:57:29;;;;;;;4.93;4.40;;;18.20;42.80;;;;;;5089241;28;20036;-34
2023/04/27 11:59:59;;;;;;;5.50;4.40;;;18.40;43.30;;;;;;5088531;28;20039;-34
2023/04/27 12:02:26;;;;;;;5.28;4.38;;;18.20;43.80;;;;;;5089608;28;20039;-35
2023/04/27 12:04:52;;;;;;;5.80;4.30;;;18.60;45.60;;;;;;5088087;28;20028;-36
2023/04/27 12:07:19;;;;;;;7.75;3.92;;;19.20;45.40;;;;;;5088657;28;20038;-35
2023/04/27 12:09:45;;;;;;;4.45;4.05;;;19.60;44.40;;;;;;5085068;28;20035;-35
2023/04/27 12:12:12;;;;;;;5.72;4.47;;;19.70;43.30;;;;;;5090106;28;20068;-35
2023/04/27 12:14:39;;;;;;;5.03;3.72;;;19.30;42.80;;;;;;5087663;28;20037;-36
2023/04/27 12:17:05;;;;;;;6.90;4.00;;;19.20;43.50;;;;;;5090206;28;20044;-35
2023/04/27 12:19:31;;;;;;;6.45;4.50;;;19.60;44.40;;;;;;5086619;28;20388;-35
2023/04/27 12:21:58;;;;;;;4.40;4.07;;;19.10;43.60;;;;;;5080491;28;20123;-35
2023/04/27 12:24:25;;;;;;;4.47;3.90;;;19.60;44.10;;;;;;5085480;28;20455;-34
2023/04/27 12:26:51;;;;;;;5.78;3.97;;;19.80;43.50;;;;;;5087244;28;20039;-36
2023/04/27 12:29:17;;;;;;;6.32;4.05;;;20.00;43.80;;;;;;5089948;28;20042;-35
2023/04/27 12:31:43;;;;;;;6.53;4.57;;;20.20;43.30;;;;;;5079585;28;20127;-35
2023/04/27 12:34:09;;;;;;;5.75;4.10;;;19.70;42.70;;;;;;5090860;28;20051;-36
2023/04/27 12:36:35;;;;;;;4.88;4.10;;;19.40;42.60;;;;;;5086464;28;20065;-35
2023/04/27 12:39:16;;;;;;;5.40;3.85;;;19.00;42.30;;;;;;5088417;28;20481;-35
2023/04/27 12:41:49;;;;;;;4.80;3.95;;;18.60;42.00;;;;;;5080253;28;20048;-34
2023/04/27 12:44:17;;;;;;;5.78;5.07;;;18.10;41.70;;;;;;5090129;28;20097;-34
2023/04/27 12:46:43;;;;;;;5.32;4.20;;;17.50;43.00;;;;;;5081745;28;20590;-35
2023/04/27 12:49:12;;;;;;;5.20;4.30;;;17.30;43.70;;;;;;5093378;28;20032;-35
2023/04/27 12:51:40;;;;;;;4.95;4.28;;;16.60;43.80;;;;;;5086425;28;20092;-35